Time;durP1;ratioP1;P1;durP2;ratioP2;P2;SDS_P1;SDS_P2;PMS_P1;PMS_P2;Temp;Humidity;BMP_temperature;BMP_pressure;BME280_temperature;BME280_humidity;BME280_pressure;Samples;Min_cycle;Max_cycle;Signal;HPM_P1;HPM_P2
2022/10/11 00:02:25;;;;;;;;;;;;;;;13.89;100.00;98387.84;5075952;28;19925;-72
2022/10/11 00:04:51;;;;;;;;;;;;;;;13.76;100.00;98374.19;5091450;28;20441;-72
2022/10/11 00:07:18;;;;;;;;;;;;;;;13.86;100.00;98380.34;5079063;28;19960;-72
2022/10/11 00:09:45;;;;;;;;;;;;;;;13.90;100.00;98386.75;5079519;28;19924;-71
2022/10/11 00:12:11;;;;;;;;;;;;;;;13.89;100.00;98389.72;5077909;28;19984;-71
2022/10/11 00:14:39;;;;;;;;;;;;;;;13.87;100.00;98391.88;5076320;28;19931;-71
2022/10/11 00:17:06;;;;;;;;;;;;;;;13.86;100.00;98388.41;5076078;28;19992;-71
2022/10/11 00:19:33;;;;;;;;;;;;;;;13.88;100.00;98393.47;5079296;28;20286;-71
2022/10/11 00:21:59;;;;;;;;;;;;;;;13.84;100.00;98393.22;5077731;28;19935;-71
2022/10/11 00:24:25;;;;;;;;;;;;;;;13.69;100.00;98390.56;5075700;28;19925;-71
2022/10/11 00:26:52;;;;;;;;;;;;;;;13.82;100.00;98392.69;5075754;28;19936;-71
2022/10/11 00:29:18;;;;;;;;;;;;;;;13.87;100.00;98387.31;5078892;28;19980;-72
2022/10/11 00:31:46;;;;;;;;;;;;;;;13.88;100.00;98394.28;5079274;28;19960;-71
2022/10/11 00:34:14;;;;;;;;;;;;;;;13.89;100.00;98390.53;5076618;28;19940;-71
2022/10/11 00:36:40;;;;;;;;;;;;;;;13.88;100.00;98391.59;5073805;28;19932;-71
2022/10/11 00:39:07;;;;;;;;;;;;;;;13.89;100.00;98395.91;5075364;28;19992;-71
2022/10/11 00:41:33;;;;;;;;;;;;;;;13.90;100.00;98400.19;5078854;28;19955;-72
2022/10/11 00:44:09;;;;;;;;;;;;;;;13.82;100.00;98394.56;5094264;28;19962;-70
2022/10/11 00:46:36;;;;;;;;;;;;;;;13.68;100.00;98393.53;5075083;28;19956;-71
2022/10/11 00:49:05;;;;;;;;;;;;;;;13.51;100.00;98394.63;5076553;28;20011;-71
2022/10/11 00:51:35;;;;;;;;;;;;;;;13.54;100.00;98398.63;5079315;28;19987;-72
2022/10/11 00:54:02;;;;;;;;;;;;;;;13.57;100.00;98392.72;5077305;28;19983;-71
2022/10/11 00:56:31;;;;;;;;;;;;;;;13.47;100.00;98395.41;5075609;28;19931;-71
2022/10/11 00:58:59;;;;;;;;;;;;;;;13.50;100.00;98394.88;5075530;28;19948;-71
2022/10/11 01:01:25;;;;;;;;;;;;;;;13.57;100.00;98391.91;5078690;28;19988;-71
2022/10/11 01:03:52;;;;;;;;;;;;;;;13.53;100.00;98391.66;5078249;28;19959;-72
2022/10/11 01:06:19;;;;;;;;;;;;;;;13.40;100.00;98393.00;5075372;28;19925;-71
2022/10/11 01:08:46;;;;;;;;;;;;;;;13.28;100.00;98394.34;5073626;28;19988;-70
2022/10/11 01:11:14;;;;;;;;;;;;;;;13.13;100.00;98392.47;5076607;28;19959;-72
2022/10/11 01:13:46;;;;;;;;;;;;;;;13.16;100.00;98386.56;5093672;28;19928;-71
2022/10/11 01:16:15;;;;;;;;;;;;;;;13.30;100.00;98389.53;5091673;28;19924;-71
2022/10/11 01:18:46;;;;;;;;;;;;;;;13.43;100.00;98389.00;5074416;28;19964;-71
2022/10/11 01:21:15;;;;;;;;;;;;;;;13.54;100.00;98377.16;5076607;28;19925;-71
2022/10/11 01:24:00;;;;;;;;;;;;;;;13.61;100.00;98384.94;5077883;28;20003;-71
2022/10/11 01:26:45;;;;;;;;;;;;;;;13.67;100.00;98378.50;5053705;28;20012;-72
2022/10/11 01:29:19;;;;;;;;;;;;;;;13.71;100.00;98384.94;5073185;28;19974;-71
2022/10/11 01:31:50;;;;;;;;;;;;;;;13.76;100.00;98380.34;5074212;28;19984;-72
2022/10/11 01:34:21;;;;;;;;;;;;;;;13.70;100.00;98391.38;5077202;28;19925;-72
2022/10/11 01:36:50;;;;;;;;;;;;;;;13.71;100.00;98393.78;5078044;28;20285;-72
2022/10/11 01:39:20;;;;;;;;;;;;;;;13.81;100.00;98387.59;5074707;28;20031;-71
2022/10/11 01:41:49;;;;;;;;;;;;;;;13.81;100.00;98383.03;5074644;28;19925;-72
2022/10/11 01:44:16;;;;;;;;;;;;;;;13.75;100.00;98386.78;5077469;28;19925;-72
2022/10/11 01:46:42;;;;;;;;;;;;;;;13.75;100.00;98386.78;5077516;28;20011;-72
2022/10/11 01:49:10;;;;;;;;;;;;;;;13.83;100.00;98380.84;5076378;28;19935;-70
2022/10/11 01:51:39;;;;;;;;;;;;;;;13.82;100.00;98379.28;5074374;28;19984;-71
2022/10/11 01:54:12;;;;;;;;;;;;;;;13.64;100.00;98387.09;5074431;28;19950;-71
2022/10/11 01:56:46;;;;;;;;;;;;;;;13.45;100.00;98382.28;5074522;28;20022;-71
2022/10/11 01:59:19;;;;;;;;;;;;;;;13.47;100.00;98390.06;5076285;28;19971;-71
2022/10/11 02:01:53;;;;;;;;;;;;;;;13.57;100.00;98389.25;5077435;28;20246;-71
2022/10/11 02:04:27;;;;;;;;;;;;;;;13.66;100.00;98384.94;5072805;28;19925;-70
2022/10/11 02:06:58;;;;;;;;;;;;;;;13.69;100.00;98376.34;5073500;28;19967;-70
2022/10/11 02:09:27;;;;;;;;;;;;;;;13.77;100.00;98386.53;5064589;28;19924;-71
2022/10/11 02:11:57;;;;;;;;;;;;;;;13.80;100.00;98381.41;5073835;28;19925;-71
2022/10/11 02:14:26;;;;;;;;;;;;;;;13.87;100.00;98386.50;5065962;28;19928;-71
2022/10/11 02:16:54;;;;;;;;;;;;;;;13.89;100.00;98385.16;5074165;28;19988;-70
2022/10/11 02:19:25;;;;;;;;;;;;;;;13.88;100.00;98380.06;5076203;28;20310;-71
2022/10/11 02:21:54;;;;;;;;;;;;;;;13.89;100.00;98373.63;5092862;28;19955;-70
2022/10/11 02:24:24;;;;;;;;;;;;;;;13.91;100.00;98366.09;5072324;28;19984;-71
2022/10/11 02:26:53;;;;;;;;;;;;;;;13.82;100.00;98379.28;5072792;28;19951;-71
2022/10/11 02:29:20;;;;;;;;;;;;;;;13.66;100.00;98376.88;5077448;28;19924;-70
2022/10/11 02:31:48;;;;;;;;;;;;;;;13.47;100.00;98390.84;5077473;28;20020;-71
2022/10/11 02:34:17;;;;;;;;;;;;;;;13.40;100.00;98406.41;5075431;28;20049;-71
2022/10/11 02:36:50;;;;;;;;;;;;;;;13.50;100.00;98402.94;5073599;28;20426;-70
2022/10/11 02:39:20;;;;;;;;;;;;;;;13.61;100.00;98396.50;5076683;28;19956;-71
2022/10/11 02:41:49;;;;;;;;;;;;;;;13.65;100.00;98397.53;5077170;28;19992;-70
2022/10/11 02:44:18;;;;;;;;;;;;;;;13.46;100.00;98396.50;5074482;28;20000;-71
2022/10/11 02:46:45;;;;;;;;;;;;;;;13.51;100.00;98388.44;5073289;28;19924;-71
2022/10/11 02:49:12;;;;;;;;;;;;;;;13.48;100.00;98392.47;5075744;28;20291;-71
2022/10/11 02:51:39;;;;;;;;;;;;;;;13.34;100.00;98387.91;5077896;28;20257;-71
2022/10/11 02:54:07;;;;;;;;;;;;;;;13.39;100.00;98382.56;5075548;28;19987;-71
2022/10/11 02:56:33;;;;;;;;;;;;;;;13.46;100.00;98386.56;5073257;28;19988;-71
2022/10/11 02:58:59;;;;;;;;;;;;;;;13.51;100.00;98393.81;5073613;28;20177;-71
2022/10/11 03:01:26;;;;;;;;;;;;;;;13.59;100.00;98392.44;5076675;28;20032;-71
2022/10/11 03:03:52;;;;;;;;;;;;;;;13.64;100.00;98398.63;5076583;28;19925;-71
2022/10/11 03:06:18;;;;;;;;;;;;;;;13.57;100.00;98398.09;5074079;28;19925;-71
2022/10/11 03:08:45;;;;;;;;;;;;;;;13.63;100.00;98396.22;5074520;28;19920;-71
2022/10/11 03:11:12;;;;;;;;;;;;;;;13.66;100.00;98399.16;5078249;28;20007;-71
2022/10/11 03:13:39;;;;;;;;;;;;;;;13.49;100.00;98407.47;5096717;28;19978;-71
2022/10/11 03:16:05;;;;;;;;;;;;;;;13.35;100.00;98406.44;5078880;28;19946;-70
2022/10/11 03:18:33;;;;;;;;;;;;;;;13.38;100.00;98413.13;5075497;28;21209;-70
2022/10/11 03:21:00;;;;;;;;;;;;;;;13.46;100.00;98417.97;5078042;28;19951;-71
2022/10/11 03:23:26;;;;;;;;;;;;;;;13.53;100.00;98421.97;5080253;28;19936;-71
2022/10/11 03:25:52;;;;;;;;;;;;;;;13.61;100.00;98419.84;5079506;28;19983;-71
2022/10/11 03:28:20;;;;;;;;;;;;;;;13.61;100.00;98422.53;5078111;28;20019;-71
2022/10/11 03:30:46;;;;;;;;;;;;;;;13.61;100.00;98417.97;5077052;28;19924;-71
2022/10/11 03:33:13;;;;;;;;;;;;;;;13.68;100.00;98429.22;5079481;28;19929;-71
2022/10/11 03:35:40;;;;;;;;;;;;;;;13.67;100.00;98422.25;5079953;28;19955;-71
2022/10/11 03:38:06;;;;;;;;;;;;;;;13.68;100.00;98429.22;5078798;28;19924;-71
2022/10/11 03:40:33;;;;;;;;;;;;;;;13.73;100.00;98423.03;5076780;28;19990;-71
2022/10/11 03:42:59;;;;;;;;;;;;;;;13.68;100.00;98431.09;5076948;28;19960;-71
2022/10/11 03:45:27;;;;;;;;;;;;;;;13.79;100.00;98424.66;5080329;28;19924;-71
2022/10/11 03:47:53;;;;;;;;;;;;;;;13.78;100.00;98431.88;5079883;28;20007;-71
2022/10/11 03:50:19;;;;;;;;;;;;;;;13.57;100.00;98440.22;5092037;28;19925;-71
2022/10/11 03:52:45;;;;;;;;;;;;;;;13.52;100.00;98444.50;5076195;28;19995;-71
2022/10/11 03:55:12;;;;;;;;;;;;;;;13.56;100.00;98441.28;5078042;28;19983;-71
2022/10/11 03:57:38;;;;;;;;;;;;;;;13.58;100.00;98441.84;5079876;28;19946;-71
2022/10/11 04:00:06;;;;;;;;;;;;;;;13.63;100.00;98439.16;5093948;28;19963;-71
2022/10/11 04:02:34;;;;;;;;;;;;;;;13.65;100.00;98445.06;5091388;28;19925;-70
2022/10/11 04:05:00;;;;;;;;;;;;;;;13.68;100.00;98436.47;5076130;28;19955;-71
2022/10/11 04:07:27;;;;;;;;;;;;;;;13.70;100.00;98440.50;5079299;28;19924;-71
2022/10/11 04:09:53;;;;;;;;;;;;;;;13.72;100.00;98435.66;5079473;28;19924;-71
2022/10/11 04:12:19;;;;;;;;;;;;;;;13.74;100.00;98441.53;5076519;28;19996;-71
2022/10/11 04:14:46;;;;;;;;;;;;;;;13.70;100.00;98445.06;5075948;28;20000;-71
2022/10/11 04:17:12;;;;;;;;;;;;;;;13.51;100.00;98444.78;5076807;28;19992;-71
2022/10/11 04:19:40;;;;;;;;;;;;;;;13.36;100.00;98447.47;5079104;28;20003;-71
2022/10/11 04:22:06;;;;;;;;;;;;;;;13.33;100.00;98453.38;5092687;28;19924;-71
2022/10/11 04:24:33;;;;;;;;;;;;;;;13.41;100.00;98463.56;5073535;28;19924;-71
2022/10/11 04:27:00;;;;;;;;;;;;;;;13.41;100.00;98445.59;5075837;28;19975;-71
2022/10/11 04:29:26;;;;;;;;;;;;;;;13.38;100.00;98464.91;5094319;28;19924;-71
2022/10/11 04:31:53;;;;;;;;;;;;;;;13.34;100.00;98455.78;5078517;28;19968;-71
2022/10/11 04:34:19;;;;;;;;;;;;;;;13.33;100.00;98464.09;5075571;28;19925;-71
2022/10/11 04:36:47;;;;;;;;;;;;;;;13.36;100.00;98461.69;5074966;28;20020;-70
2022/10/11 04:39:13;;;;;;;;;;;;;;;13.45;100.00;98475.38;5075550;28;19932;-70
2022/10/11 04:41:40;;;;;;;;;;;;;;;13.49;100.00;98471.88;5078643;28;19921;-71
2022/10/11 04:44:06;;;;;;;;;;;;;;;13.56;100.00;98465.44;5077639;28;19993;-70
2022/10/11 04:46:32;;;;;;;;;;;;;;;13.63;100.00;98469.47;5073955;28;20294;-70
2022/10/11 04:48:59;;;;;;;;;;;;;;;13.66;100.00;98476.19;5075754;28;20028;-70
2022/10/11 04:51:26;;;;;;;;;;;;;;;13.69;100.00;98471.09;5093606;28;19931;-70
2022/10/11 04:53:54;;;;;;;;;;;;;;;13.65;100.00;98478.06;5078140;28;19925;-71
2022/10/11 04:56:20;;;;;;;;;;;;;;;13.68;100.00;98472.16;5075881;28;19924;-70
2022/10/11 04:58:48;;;;;;;;;;;;;;;13.68;100.00;98466.78;5074970;28;19925;-71
2022/10/11 05:01:14;;;;;;;;;;;;;;;13.67;100.00;98469.75;5077324;28;19929;-71
2022/10/11 05:03:41;;;;;;;;;;;;;;;13.60;100.00;98466.53;5078258;28;19991;-72
2022/10/11 05:06:07;;;;;;;;;;;;;;;13.41;100.00;98485.03;5077017;28;19952;-71
2022/10/11 05:08:34;;;;;;;;;;;;;;;13.29;100.00;98484.47;5074871;28;20256;-71
2022/10/11 05:11:02;;;;;;;;;;;;;;;13.28;100.00;98481.00;5075152;28;19925;-70
2022/10/11 05:13:29;;;;;;;;;;;;;;;13.22;100.00;98490.09;5078335;28;19925;-69
2022/10/11 05:15:56;;;;;;;;;;;;;;;13.18;100.00;98477.50;5076607;28;19925;-69
2022/10/11 05:18:22;;;;;;;;;;;;;;;13.16;100.00;98487.66;5074443;28;19992;-70
2022/10/11 05:20:49;;;;;;;;;;;;;;;13.22;100.00;98489.28;5072774;28;19992;-70
2022/10/11 05:23:15;;;;;;;;;;;;;;;13.19;100.00;98487.13;5077034;28;19925;-70
2022/10/11 05:25:42;;;;;;;;;;;;;;;13.16;100.00;98499.22;5078318;28;19995;-70
2022/10/11 05:28:09;;;;;;;;;;;;;;;13.14;100.00;98503.22;5076887;28;19925;-70
2022/10/11 05:30:36;;;;;;;;;;;;;;;13.19;100.00;98505.91;5074431;28;20063;-70
2022/10/11 05:33:02;;;;;;;;;;;;;;;13.25;100.00;98508.34;5074246;28;19946;-70
2022/10/11 05:35:28;;;;;;;;;;;;;;;13.33;100.00;98509.72;5077716;28;20028;-71
2022/10/11 05:37:55;;;;;;;;;;;;;;;13.43;100.00;98515.09;5077402;28;19935;-70
2022/10/11 05:40:21;;;;;;;;;;;;;;;13.49;100.00;98514.81;5074217;28;19988;-69
2022/10/11 05:42:47;;;;;;;;;;;;;;;13.53;100.00;98518.59;5074373;28;20008;-70
2022/10/11 05:45:15;;;;;;;;;;;;;;;13.57;100.00;98518.06;5076150;28;19960;-70
2022/10/11 05:47:41;;;;;;;;;;;;;;;13.57;100.00;98518.06;5077010;28;19924;-70
2022/10/11 05:50:08;;;;;;;;;;;;;;;13.58;100.00;98528.53;5075530;28;20002;-70
2022/10/11 05:52:34;;;;;;;;;;;;;;;13.62;100.00;98521.53;5073483;28;19929;-71
2022/10/11 05:55:02;;;;;;;;;;;;;;;13.63;100.00;98525.84;5074273;28;19953;-70
2022/10/11 05:57:28;;;;;;;;;;;;;;;13.64;100.00;98522.09;5077085;28;20034;-70
2022/10/11 05:59:54;;;;;;;;;;;;;;;13.69;100.00;98529.31;5077221;28;19962;-70
2022/10/11 06:02:22;;;;;;;;;;;;;;;13.65;100.00;98533.66;5073823;28;19925;-70
2022/10/11 06:04:48;;;;;;;;;;;;;;;13.69;100.00;98532.81;5073171;28;19929;-70
2022/10/11 06:07:15;;;;;;;;;;;;;;;13.70;100.00;98541.69;5091390;28;19939;-70
2022/10/11 06:09:41;;;;;;;;;;;;;;;13.69;100.00;98535.50;5076814;28;19964;-70
2022/10/11 06:12:07;;;;;;;;;;;;;;;13.74;100.00;98537.41;5075607;28;19924;-71
2022/10/11 06:14:34;;;;;;;;;;;;;;;13.74;100.00;98532.81;5073280;28;20016;-71
2022/10/11 06:17:00;;;;;;;;;;;;;;;13.76;100.00;98540.63;5073985;28;19948;-70
2022/10/11 06:19:28;;;;;;;;;;;;;;;13.69;100.00;98540.88;5076895;28;19921;-69
2022/10/11 06:21:54;;;;;;;;;;;;;;;13.74;100.00;98551.59;5076624;28;19980;-70
2022/10/11 06:24:20;;;;;;;;;;;;;;;13.75;100.00;98547.03;5073297;28;19924;-70
2022/10/11 06:26:48;;;;;;;;;;;;;;;13.82;100.00;98550.28;5073179;28;19931;-70
2022/10/11 06:29:14;;;;;;;;;;;;;;;13.83;100.00;98554.59;5075808;28;19924;-71
2022/10/11 06:31:40;;;;;;;;;;;;;;;13.73;100.00;98550.00;5076870;28;19924;-71
2022/10/11 06:34:07;;;;;;;;;;;;;;;13.72;100.00;98553.75;5075868;28;19952;-71
2022/10/11 06:36:34;;;;;;;;;;;;;;;13.77;100.00;98558.34;5073179;28;20420;-71
2022/10/11 06:39:01;;;;;;;;;;;;;;;13.75;100.00;98560.47;5073795;28;20011;-71
2022/10/11 06:41:28;;;;;;;;;;;;;;;13.67;100.00;98559.13;5076774;28;19920;-71
2022/10/11 06:43:54;;;;;;;;;;;;;;;13.60;100.00;98569.31;5076131;28;19920;-70
2022/10/11 06:46:22;;;;;;;;;;;;;;;13.59;100.00;98575.75;5077777;28;19984;-70
2022/10/11 06:48:49;;;;;;;;;;;;;;;13.60;100.00;98574.69;5076959;28;20011;-70
2022/10/11 06:51:16;;;;;;;;;;;;;;;13.66;100.00;98570.94;5079197;28;19920;-70
2022/10/11 06:53:44;;;;;;;;;;;;;;;13.71;100.00;98575.53;5080184;28;19924;-70
2022/10/11 06:56:11;;;;;;;;;;;;;;;13.78;100.00;98584.09;5076905;28;19931;-70
2022/10/11 06:58:38;;;;;;;;;;;;;;;13.71;100.00;98581.66;5076617;28;19932;-70
2022/10/11 07:01:06;;;;;;;;;;;;;;;13.59;100.00;98583.81;5077345;28;19955;-70
2022/10/11 07:03:32;;;;;;;;;;;;;;;13.63;100.00;98595.63;5078469;28;19932;-70
2022/10/11 07:06:02;;;;;;;;;;;;;;;13.64;100.00;98589.19;5080068;28;19928;-70
2022/10/11 07:08:29;;;;;;;;;;;;;;;13.65;100.00;98592.69;5075686;28;19925;-70
2022/10/11 07:11:01;;;;;;;;;;;;;;;13.58;100.00;98597.50;5075751;28;19931;-70
2022/10/11 07:13:27;;;;;;;;;;;;;;;13.56;100.00;98594.25;5069158;28;19925;-70
2022/10/11 07:15:54;;;;;;;;;;;;;;;13.58;100.00;98600.19;5076669;28;19925;-70
2022/10/11 07:18:20;;;;;;;;;;;;;;;13.55;100.00;98604.22;5079546;28;19984;-70
2022/10/11 07:20:46;;;;;;;;;;;;;;;13.61;100.00;98608.50;5080051;28;20396;-70
2022/10/11 07:23:13;;;;;;;;;;;;;;;13.61;100.00;98615.75;5087706;28;19925;-70
2022/10/11 07:25:39;;;;;;;;;;;;;;;13.58;100.00;98621.66;5079958;28;19928;-70
2022/10/11 07:28:07;;;;;;;;;;;;;;;13.61;100.00;98611.19;5078634;28;19988;-71
2022/10/11 07:30:34;;;;;;;;;;;;;;;13.65;100.00;98608.78;5076089;28;19936;-70
2022/10/11 07:33:00;;;;;;;;;;;;;;;13.75;100.00;98619.53;5076556;28;20096;-70
2022/10/11 07:35:27;;;;;;;;;;;;;;;13.71;100.00;98621.16;5079524;28;19952;-70
2022/10/11 07:37:53;;;;;;;;;;;;;;;13.81;100.00;98627.31;5095586;28;19974;-70
2022/10/11 07:40:20;;;;;;;;;;;;;;;13.78;100.00;98630.53;5077257;28;19943;-70
2022/10/11 07:42:46;;;;;;;;;;;;;;;13.74;100.00;98634.81;5076769;28;19933;-70
2022/10/11 07:45:14;;;;;;;;;;;;;;;13.72;100.00;98634.28;5077126;28;19980;-70
2022/10/11 07:47:40;;;;;;;;;;;;;;;13.69;100.00;98632.13;5079418;28;19935;-70
2022/10/11 07:50:07;;;;;;;;;;;;;;;13.71;100.00;98639.94;5078182;28;19924;-70
2022/10/11 07:52:34;;;;;;;;;;;;;;;13.59;100.00;98637.47;5075674;28;20019;-70
2022/10/11 07:55:01;;;;;;;;;;;;;;;13.69;100.00;98637.50;5075895;28;20028;-70
2022/10/11 07:57:27;;;;;;;;;;;;;;;13.67;100.00;98636.16;5079385;28;19934;-70
2022/10/11 07:59:54;;;;;;;;;;;;;;;13.73;100.00;98646.66;5079277;28;19925;-70
2022/10/11 08:02:21;;;;;;;;;;;;;;;13.70;100.00;98644.50;5076372;28;19936;-70
2022/10/11 08:04:48;;;;;;;;;;;;;;;13.58;100.00;98640.44;5076155;28;19959;-70
2022/10/11 08:07:14;;;;;;;;;;;;;;;13.69;100.00;98637.50;5078319;28;19921;-70
2022/10/11 08:09:40;;;;;;;;;;;;;;;13.64;100.00;98645.56;5079481;28;20281;-70
2022/10/11 08:12:07;;;;;;;;;;;;;;;13.59;100.00;98653.56;5093710;28;19931;-70
2022/10/11 08:14:33;;;;;;;;;;;;;;;13.60;100.00;98633.72;5075945;28;19931;-71
2022/10/11 08:17:01;;;;;;;;;;;;;;;13.63;100.00;98643.94;5076140;28;19960;-71
2022/10/11 08:19:28;;;;;;;;;;;;;;;13.61;100.00;98638.03;5079103;28;20017;-71
2022/10/11 08:21:55;;;;;;;;;;;;;;;13.62;100.00;98639.63;5078946;28;19935;-71
2022/10/11 08:24:21;;;;;;;;;;;;;;;13.61;100.00;98635.34;5075748;28;19924;-70
2022/10/11 08:26:47;;;;;;;;;;;;;;;13.64;100.00;98644.75;5076008;28;19925;-70
2022/10/11 08:29:14;;;;;;;;;;;;;;;13.71;100.00;98650.69;5076568;28;19925;-70
2022/10/11 08:31:40;;;;;;;;;;;;;;;13.69;100.00;98656.28;5079167;28;19936;-70
2022/10/11 08:34:06;;;;;;;;;;;;;;;13.67;100.00;98654.97;5077902;28;19986;-70
2022/10/11 08:36:34;;;;;;;;;;;;;;;13.61;100.00;98646.09;5073453;28;19924;-70
2022/10/11 08:39:00;;;;;;;;;;;;;;;13.63;100.00;98653.88;5075318;28;19928;-70
2022/10/11 08:41:29;;;;;;;;;;;;;;;13.64;100.00;98658.16;5078114;28;19925;-70
2022/10/11 08:44:02;;;;;;;;;;;;;;;13.70;100.00;98649.88;5078150;28;19924;-70
2022/10/11 08:46:31;;;;;;;;;;;;;;;13.68;100.00;98662.72;5067498;28;19936;-70
2022/10/11 08:48:57;;;;;;;;;;;;;;;13.76;100.00;98659.53;5075175;28;19956;-70
2022/10/11 08:51:26;;;;;;;;;;;;;;;13.81;100.00;98661.41;5066889;28;20011;-70
2022/10/11 08:53:57;;;;;;;;;;;;;;;13.72;100.00;98663.81;5074648;28;20253;-69
2022/10/11 08:56:26;;;;;;;;;;;;;;;13.79;100.00;98669.75;5066385;28;19925;-71
2022/10/11 08:58:55;;;;;;;;;;;;;;;13.92;100.00;98668.44;5075014;28;20417;-71
2022/10/11 09:01:23;;;;;;;;;;;;;;;13.95;100.00;98668.72;5077758;28;19960;-70
2022/10/11 09:03:50;;;;;;;;;;;;;;;14.05;100.00;98665.22;5078631;28;19925;-70
2022/10/11 09:06:20;;;;;;;;;;;;;;;14.04;100.00;98663.63;5076117;28;19979;-70
2022/10/11 09:08:55;;;;;;;;;;;;;;;13.99;100.00;98672.47;5074905;28;19932;-69
2022/10/11 09:11:31;;;;;;;;;;;;;;;13.98;100.00;98664.69;5078024;28;19954;-70
2022/10/11 09:14:05;;;;;;;;;;;;;;;13.93;100.00;98670.84;5077950;28;19924;-70
2022/10/11 09:16:37;;;;;;;;;;;;;;;14.00;100.00;98667.91;5067259;28;19952;-70
2022/10/11 09:19:18;;;;;;;;;;;;;;;14.00;100.00;98671.41;5074847;28;19924;-70
2022/10/11 09:21:49;;;;;;;;;;;;;;;13.99;100.00;98674.34;5077563;28;20427;-71
2022/10/11 09:24:31;;;;;;;;;;;;;;;13.93;100.00;98664.66;5074967;28;19924;-71
2022/10/11 09:27:01;;;;;;;;;;;;;;;14.03;100.00;98656.63;5073707;28;19964;-70
2022/10/11 09:29:39;;;;;;;;;;;;;;;14.08;100.00;98656.63;5066179;28;19924;-70
2022/10/11 09:32:12;;;;;;;;;;;;;;;14.04;100.00;98661.75;5075263;28;19936;-70
2022/10/11 09:34:39;;;;;;;;;;;;;;;14.05;100.00;98655.28;5077555;28;20016;-70
2022/10/11 09:37:13;;;;;;;;;;;;;;;14.13;100.00;98648.59;5076628;28;19970;-70
2022/10/11 09:39:43;;;;;;;;;;;;;;;14.15;100.00;98665.22;5073918;28;19992;-70
2022/10/11 09:42:11;;;;;;;;;;;;;;;14.22;100.00;98667.66;5075332;28;19932;-70
2022/10/11 09:44:38;;;;;;;;;;;;;;;14.25;100.00;98664.44;5093260;28;19924;-69
2022/10/11 09:47:05;;;;;;;;;;;;;;;14.40;100.00;98664.47;5076278;28;19932;-70
2022/10/11 09:49:35;;;;;;;;;;;;;;;14.35;100.00;98662.59;5074094;28;20240;-70
2022/10/11 09:52:02;;;;;;;;;;;;;;;14.43;100.00;98658.56;5073022;28;19931;-70
2022/10/11 09:54:39;;;;;;;;;;;;;;;14.57;100.00;98655.06;5062213;28;20002;-70
2022/10/11 09:57:05;;;;;;;;;;;;;;;14.64;100.00;98659.38;5076346;28;19924;-69
2022/10/11 09:59:34;;;;;;;;;;;;;;;14.70;100.00;98656.38;5073803;28;19928;-69
2022/10/11 10:02:21;;;;;;;;;;;;;;;14.68;100.00;98658.53;5073494;28;19974;-70
2022/10/11 10:04:54;;;;;;;;;;;;;;;14.59;100.00;98663.66;5072051;28;19980;-70
2022/10/11 10:07:21;;;;;;;;;;;;;;;14.68;100.00;98665.78;5073705;28;20004;-70
2022/10/11 10:09:48;;;;;;;;;;;;;;;14.68;100.00;98663.09;5073592;28;19959;-70
2022/10/11 10:12:20;;;;;;;;;;;;;;;14.69;100.00;98668.22;5075352;28;19988;-69
2022/10/11 10:14:55;;;;;;;;;;;;;;;14.86;100.00;98655.28;5076935;28;19930;-70
2022/10/11 10:17:21;;;;;;;;;;;;;;;14.65;100.00;98656.41;5073859;28;19991;-69
2022/10/11 10:19:49;;;;;;;;;;;;;;;14.89;100.00;98660.13;5075793;28;19988;-69
2022/10/11 10:22:18;;;;;;;;;;;;;;;14.86;100.00;98660.66;5078634;28;19983;-70
2022/10/11 10:24:45;;;;;;;;;;;;;;;14.85;100.00;98656.38;5078067;28;19925;-70
2022/10/11 10:27:17;;;;;;;;;;;;;;;14.97;100.00;98659.56;5079989;28;19924;-70
2022/10/11 10:29:44;;;;;;;;;;;;;;;14.88;100.00;98657.72;5081480;28;19924;-69
2022/10/11 10:32:13;;;;;;;;;;;;;;;14.95;100.00;98661.72;5079948;28;19924;-71
2022/10/11 10:34:41;;;;;;;;;;;;;;;15.07;100.00;98664.91;5077777;28;19925;-70
2022/10/11 10:37:11;;;;;;;;;;;;;;;15.10;100.00;98672.44;5094949;28;19928;-70
2022/10/11 10:39:40;;;;;;;;;;;;;;;15.12;100.00;98662.22;5081834;28;20341;-70
2022/10/11 10:42:12;;;;;;;;;;;;;;;15.16;100.00;98654.41;5080966;28;19928;-71
2022/10/11 10:44:39;;;;;;;;;;;;;;;15.13;100.00;98653.03;5076922;28;19980;-70
2022/10/11 10:47:09;;;;;;;;;;;;;;;15.20;100.00;98663.53;5079065;28;19960;-70
2022/10/11 10:49:40;;;;;;;;;;;;;;;15.25;100.00;98666.22;5080481;28;19925;-70
2022/10/11 10:52:20;;;;;;;;;;;;;;;15.29;100.00;98656.50;5080075;28;19925;-70
2022/10/11 10:54:51;;;;;;;;;;;;;;;15.31;100.00;98661.63;5077123;28;19959;-70
2022/10/11 10:57:20;;;;;;;;;;;;;;;15.29;100.00;98653.03;5079486;28;19996;-70
2022/10/11 10:59:54;;;;;;;;;;;;;;;15.38;100.00;98659.44;5080149;28;19931;-70
2022/10/11 11:02:21;;;;;;;;;;;;;;;15.38;100.00;98654.06;5077174;28;19935;-70
2022/10/11 11:04:53;;;;;;;;;;;;;;;15.36;100.00;98648.94;5077527;28;19948;-70
2022/10/11 11:07:24;;;;;;;;;;;;;;;15.40;100.00;98646.50;5079886;28;19988;-70
2022/10/11 11:09:54;;;;;;;;;;;;;;;15.48;100.00;98638.69;5080734;28;19946;-71
2022/10/11 11:12:28;;;;;;;;;;;;;;;15.27;100.00;98647.09;5077038;28;19931;-71
2022/10/11 11:14:59;;;;;;;;;;;;;;;15.36;100.00;98638.16;5076977;28;19971;-72
2022/10/11 11:17:30;;;;;;;;;;;;;;;15.44;100.00;98639.50;5067825;28;19925;-70
2022/10/11 11:20:03;;;;;;;;;;;;;;;15.56;100.00;98634.63;5077171;28;19948;-71
2022/10/11 11:22:35;;;;;;;;;;;;;;;15.66;100.00;98631.84;5069310;28;19924;-70
2022/10/11 11:25:07;;;;;;;;;;;;;;;15.81;100.00;98637.16;5077249;28;19931;-71
2022/10/11 11:27:44;;;;;;;;;;;;;;;15.91;100.00;98642.47;5080138;28;19963;-70
2022/10/11 11:30:12;;;;;;;;;;;;;;;15.98;100.00;98637.59;5077893;28;19925;-70
2022/10/11 11:32:47;;;;;;;;;;;;;;;15.81;100.00;98636.38;5074912;28;19932;-71
2022/10/11 11:35:17;;;;;;;;;;;;;;;15.92;100.00;98632.50;5078327;28;19967;-70
2022/10/11 11:37:45;;;;;;;;;;;;;;;15.78;100.00;98628.84;5079613;28;20076;-70
2022/10/11 11:40:15;;;;;;;;;;;;;;;15.77;100.00;98633.41;5076522;28;19931;-70
2022/10/11 11:42:44;;;;;;;;;;;;;;;15.98;100.00;98618.72;5076332;28;19935;-70
2022/10/11 11:45:16;;;;;;;;;;;;;;;16.04;100.00;98630.25;5078032;28;19971;-70
2022/10/11 11:47:46;;;;;;;;;;;;;;;15.78;100.00;98623.44;5079385;28;20035;-70
2022/10/11 11:50:21;;;;;;;;;;;;;;;15.92;100.00;98627.94;5077635;28;19934;-70
2022/10/11 11:52:50;;;;;;;;;;;;;;;15.89;100.00;98627.69;5075928;28;19924;-70
2022/10/11 11:55:21;;;;;;;;;;;;;;;15.67;100.00;98622.69;5078796;28;19964;-70
2022/10/11 11:57:54;;;;;;;;;;;;;;;15.91;100.00;98626.31;5080020;28;19924;-70
2022/10/11 12:00:21;;;;;;;;;;;;;;;16.03;100.00;98629.44;5077380;28;19943;-70
2022/10/11 12:02:51;;;;;;;;;;;;;;;16.12;100.00;98627.75;5076397;28;19924;-71
2022/10/11 12:05:19;;;;;;;;;;;;;;;16.00;100.00;98624.63;5079132;28;20082;-70
2022/10/11 12:07:47;;;;;;;;;;;;;;;16.11;100.00;98622.69;5079648;28;19925;-70
2022/10/11 12:10:16;;;;;;;;;;;;;;;15.91;100.00;98630.88;5092522;28;20717;-70
2022/10/11 12:12:43;;;;;;;;;;;;;;;15.87;100.00;98625.28;5075656;28;19963;-70
2022/10/11 12:15:17;;;;;;;;;;;;;;;15.79;100.00;98627.72;5077282;28;20019;-71
2022/10/11 12:18:01;;;;;;;;;;;;;;;16.03;100.00;98617.91;5079113;28;19924;-71
2022/10/11 12:20:30;;;;;;;;;;;;;;;16.09;100.00;98619.47;5067984;28;19984;-71
2022/10/11 12:22:59;;;;;;;;;;;;;;;16.09;100.00;98617.56;5075788;28;19925;-71
2022/10/11 12:25:35;;;;;;;;;;;;;;;16.11;100.00;98614.59;5067564;28;19963;-71
2022/10/11 12:28:02;;;;;;;;;;;;;;;16.12;100.00;98611.59;5075721;28;19929;-71
2022/10/11 12:30:47;;;;;;;;;;;;;;;16.19;100.00;98613.97;5079224;28;19958;-71
2022/10/11 12:33:14;;;;;;;;;;;;;;;16.20;100.00;98613.72;5075975;28;19951;-70
2022/10/11 12:35:50;;;;;;;;;;;;;;;16.12;100.00;98611.59;5074682;28;20161;-71
2022/10/11 12:38:18;;;;;;;;;;;;;;;16.03;100.00;98607.13;5078444;28;19971;-71
2022/10/11 12:40:47;;;;;;;;;;;;;;;16.12;100.00;98610.81;5078960;28;19932;-71
2022/10/11 12:43:24;;;;;;;;;;;;;;;16.15;100.00;98615.66;5075915;28;20011;-71